createdAt,value
2023-04-30T00:03:53.681Z,7.28
2023-04-30T00:08:56.406Z,7.55
2023-04-30T00:13:59.078Z,7.95
2023-04-30T00:19:01.450Z,4.55
2023-04-30T00:24:04.152Z,6.15
2023-04-30T00:29:07.198Z,6.07
2023-04-30T00:34:09.977Z,5.68
2023-04-30T00:39:12.878Z,5.72
2023-04-30T00:44:15.109Z,5.07
2023-04-30T00:49:17.775Z,6.38
2023-04-30T00:54:21.708Z,5.35
2023-04-30T00:59:25.476Z,5.40
2023-04-30T01:04:29.060Z,5.80
2023-04-30T01:09:32.673Z,5.10
2023-04-30T01:14:48.497Z,6.80
2023-04-30T01:19:51.505Z,5.45
2023-04-30T01:25:13.033Z,5.97
2023-04-30T01:30:17.212Z,5.60
2023-04-30T01:35:19.839Z,5.53
2023-04-30T01:40:28.757Z,5.65
2023-04-30T01:45:43.520Z,6.20
2023-04-30T01:51:02.379Z,6.47
2023-04-30T01:56:09.137Z,5.75
2023-04-30T02:01:27.616Z,5.50
2023-04-30T02:06:31.547Z,6.28
2023-04-30T02:11:34.693Z,5.35
2023-04-30T02:16:37.457Z,5.30
2023-04-30T02:21:40.271Z,5.45
2023-04-30T02:26:43.051Z,5.57
2023-04-30T02:31:45.813Z,6.47
2023-04-30T02:36:48.070Z,5.72
2023-04-30T02:41:50.767Z,5.00
2023-04-30T02:46:53.410Z,5.38
2023-04-30T02:51:56.608Z,6.43
2023-04-30T02:56:58.848Z,9.18
2023-04-30T03:02:01.778Z,5.93
2023-04-30T03:07:04.481Z,5.07
2023-04-30T03:12:07.119Z,5.22
2023-04-30T03:17:09.935Z,5.53
2023-04-30T03:22:12.617Z,5.78
2023-04-30T03:27:17.195Z,5.25
2023-04-30T03:32:19.910Z,5.85
2023-04-30T03:37:22.628Z,4.97
2023-04-30T03:42:25.365Z,5.28
2023-04-30T03:47:27.602Z,6.25
2023-04-30T03:52:31.804Z,6.13
2023-04-30T03:57:34.386Z,5.50
2023-04-30T04:02:38.165Z,6.13
2023-04-30T04:07:41.612Z,5.47
2023-04-30T04:12:44.540Z,4.88
2023-04-30T04:17:47.240Z,5.65
2023-04-30T04:22:50.314Z,5.75
2023-04-30T04:27:53.081Z,6.05
2023-04-30T04:32:55.846Z,5.70
2023-04-30T04:37:58.150Z,5.45
2023-04-30T04:43:00.898Z,5.20
2023-04-30T04:48:03.559Z,4.65
2023-04-30T04:53:06.485Z,5.00
2023-04-30T04:58:08.760Z,3.88
2023-04-30T05:03:11.479Z,4.15
2023-04-30T05:08:14.158Z,4.10
2023-04-30T05:13:16.345Z,5.20
2023-04-30T05:18:19.085Z,3.95
2023-04-30T05:23:21.968Z,4.78
2023-04-30T05:28:24.668Z,4.22
2023-04-30T05:33:27.734Z,3.83
2023-04-30T05:38:30.458Z,3.50
2023-04-30T05:43:33.168Z,2.78
2023-04-30T05:48:35.399Z,3.58
2023-04-30T05:53:37.946Z,2.55
2023-04-30T05:58:40.421Z,2.72
2023-04-30T06:03:43.103Z,2.40
2023-04-30T06:08:45.868Z,2.40
2023-04-30T06:13:49.760Z,2.50
2023-04-30T06:18:53.686Z,2.95
2023-04-30T06:23:56.818Z,2.47
2023-04-30T06:28:59.001Z,3.10
2023-04-30T06:34:01.691Z,2.67
2023-04-30T06:39:05.647Z,3.03
2023-04-30T06:44:09.548Z,2.72
2023-04-30T06:49:12.278Z,2.90
2023-04-30T06:54:15.063Z,2.55
2023-04-30T06:59:18.138Z,2.25
2023-04-30T07:04:20.652Z,2.40
2023-04-30T07:09:23.120Z,3.05
2023-04-30T07:14:25.774Z,2.38
2023-04-30T07:19:27.854Z,2.63
2023-04-30T07:24:31.654Z,2.65
2023-04-30T07:29:34.636Z,2.50
2023-04-30T07:34:37.232Z,2.35
2023-04-30T07:39:39.999Z,2.42
2023-04-30T07:44:42.653Z,2.80
2023-04-30T07:49:45.372Z,3.72
2023-04-30T07:54:47.989Z,2.58
2023-04-30T07:59:51.418Z,2.50
2023-04-30T08:04:55.896Z,3.30
2023-04-30T08:09:58.514Z,3.13
2023-04-30T08:15:03.542Z,3.00
2023-04-30T08:20:07.338Z,2.47
2023-04-30T08:25:12.986Z,2.50
2023-04-30T08:30:15.722Z,2.80
2023-04-30T08:35:18.455Z,2.13
2023-04-30T08:40:23.561Z,2.47
2023-04-30T08:45:29.267Z,2.22
2023-04-30T08:50:32.496Z,2.35
2023-04-30T08:55:35.562Z,2.03
2023-04-30T09:00:39.980Z,2.67
2023-04-30T09:05:42.796Z,2.20
2023-04-30T09:10:45.516Z,2.83
2023-04-30T09:15:52.401Z,2.28
2023-04-30T09:21:02.194Z,2.00
2023-04-30T09:26:04.963Z,2.60
2023-04-30T09:31:22.381Z,2.35
2023-04-30T09:36:25.098Z,2.05
2023-04-30T09:41:29.614Z,2.22
2023-04-30T09:46:34.885Z,2.30
2023-04-30T09:51:54.851Z,2.30
2023-04-30T09:56:59.538Z,2.30
2023-04-30T10:02:04.706Z,2.40
2023-04-30T10:07:12.516Z,3.13
2023-04-30T10:12:23.830Z,2.65
2023-04-30T10:17:29.909Z,2.40
2023-04-30T10:22:35.352Z,2.42
2023-04-30T10:27:38.282Z,2.30
2023-04-30T10:32:56.353Z,2.47
2023-04-30T10:38:16.296Z,2.35
2023-04-30T10:43:20.172Z,2.80
2023-04-30T10:48:27.578Z,2.65
2023-04-30T10:53:34.029Z,2.80
2023-04-30T10:58:39.644Z,2.50
2023-04-30T11:04:03.306Z,2.55
2023-04-30T11:09:05.947Z,2.67
2023-04-30T11:14:11.628Z,2.97
2023-04-30T11:19:15.269Z,2.60
2023-04-30T11:24:20.401Z,2.70
2023-04-30T11:29:23.126Z,2.40
2023-04-30T11:34:26.231Z,2.63
2023-04-30T11:39:30.038Z,2.60
2023-04-30T11:44:32.871Z,2.25
2023-04-30T11:49:35.717Z,2.88
2023-04-30T11:54:38.489Z,2.40
2023-04-30T11:59:42.508Z,2.90
2023-04-30T12:04:45.510Z,2.85
2023-04-30T12:09:57.741Z,2.22
2023-04-30T12:15:12.528Z,2.65
2023-04-30T12:20:16.069Z,2.47
2023-04-30T12:25:20.988Z,3.20
2023-04-30T12:30:27.355Z,2.85
2023-04-30T12:35:32.700Z,2.80
2023-04-30T12:40:35.926Z,2.70
2023-04-30T12:45:56.034Z,3.70
2023-04-30T12:51:01.428Z,3.20
2023-04-30T12:56:17.754Z,2.42
2023-04-30T13:01:23.299Z,2.80
2023-04-30T13:06:27.856Z,2.70
2023-04-30T13:11:30.409Z,2.97
2023-04-30T13:16:33.254Z,2.63
2023-04-30T13:21:35.971Z,3.28
2023-04-30T13:26:38.133Z,2.75
2023-04-30T13:31:42.609Z,2.47
2023-04-30T13:36:47.086Z,3.67
2023-04-30T13:41:49.639Z,2.63
2023-04-30T13:46:52.447Z,3.13
2023-04-30T13:51:55.120Z,2.75
2023-04-30T13:56:59.889Z,2.97
2023-04-30T14:02:02.750Z,3.10
2023-04-30T14:07:04.995Z,2.90
2023-04-30T14:12:07.636Z,2.88
2023-04-30T14:17:09.923Z,3.20
2023-04-30T14:22:12.773Z,10.45
2023-04-30T14:27:15.619Z,109.60
2023-04-30T14:32:18.528Z,93.72
2023-04-30T14:37:20.874Z,55.35
2023-04-30T14:42:26.737Z,26.83
2023-04-30T14:47:29.289Z,22.33
2023-04-30T14:52:36.641Z,10.27
2023-04-30T14:57:39.594Z,3.45
2023-04-30T15:02:42.251Z,2.60
2023-04-30T15:07:44.779Z,3.60
2023-04-30T15:12:47.421Z,3.97
2023-04-30T15:17:49.755Z,3.25
2023-04-30T15:22:55.118Z,2.65
2023-04-30T15:27:58.542Z,2.72
2023-04-30T15:33:01.251Z,2.58
2023-04-30T15:38:03.536Z,4.50
2023-04-30T15:43:06.530Z,6.18
2023-04-30T15:48:09.362Z,7.82
2023-04-30T15:53:11.577Z,4.55
2023-04-30T15:58:14.130Z,7.85
2023-04-30T16:03:16.953Z,31.95
2023-04-30T16:08:20.002Z,14.75
2023-04-30T16:13:22.270Z,7.50
2023-04-30T16:18:25.127Z,3.58
2023-04-30T16:23:28.717Z,3.70
2023-04-30T16:28:31.508Z,3.00
2023-04-30T16:33:34.081Z,3.03
2023-04-30T16:38:37.328Z,5.13
2023-04-30T16:43:40.175Z,5.07
2023-04-30T16:48:42.826Z,3.95
2023-04-30T16:53:45.609Z,4.75
2023-04-30T16:58:48.323Z,18.67
2023-04-30T17:03:51.622Z,4.80
2023-04-30T17:08:54.776Z,5.30
2023-04-30T17:13:58.395Z,6.10
2023-04-30T17:19:00.939Z,5.07
2023-04-30T17:24:04.031Z,5.32
2023-04-30T17:29:06.816Z,5.70
2023-04-30T17:34:09.122Z,5.20
2023-04-30T17:39:12.992Z,9.98
2023-04-30T17:44:19.691Z,9.07
2023-04-30T17:49:22.224Z,6.05
2023-04-30T17:54:25.833Z,7.88
2023-04-30T17:59:30.521Z,7.78
2023-04-30T18:04:32.757Z,7.78
2023-04-30T18:09:36.244Z,8.95
2023-04-30T18:14:38.989Z,36.95
2023-04-30T18:19:44.775Z,6.57
2023-04-30T18:24:47.496Z,8.52
2023-04-30T18:29:50.493Z,10.98
2023-04-30T18:34:52.615Z,8.13
2023-04-30T18:39:55.925Z,8.32
2023-04-30T18:44:59.079Z,8.35
2023-04-30T18:50:01.268Z,8.18
2023-04-30T18:55:06.681Z,7.20
2023-04-30T19:00:10.662Z,9.80
2023-04-30T19:05:14.408Z,10.43
2023-04-30T19:10:17.078Z,7.40
2023-04-30T19:15:19.930Z,5.82
2023-04-30T19:20:22.577Z,7.22
2023-04-30T19:25:27.859Z,6.70
2023-04-30T19:30:30.763Z,6.35
2023-04-30T19:35:35.455Z,7.38
2023-04-30T19:40:38.083Z,7.72
2023-04-30T19:45:57.627Z,6.80
2023-04-30T19:51:09.627Z,7.70
2023-04-30T19:56:12.645Z,8.45
2023-04-30T20:01:15.546Z,7.93
2023-04-30T20:06:18.830Z,8.25
2023-04-30T20:11:21.571Z,7.57
2023-04-30T20:16:24.313Z,8.32
2023-04-30T20:21:33.189Z,7.93
2023-04-30T20:26:38.373Z,8.45
2023-04-30T20:31:46.083Z,8.35
2023-04-30T20:36:49.777Z,7.68
2023-04-30T20:41:55.386Z,6.45
2023-04-30T20:46:58.261Z,7.05
2023-04-30T20:52:00.816Z,7.00
2023-04-30T20:57:03.418Z,6.68
2023-04-30T21:02:06.134Z,6.72
2023-04-30T21:07:08.471Z,7.22
2023-04-30T21:12:11.979Z,8.07
2023-04-30T21:22:45.872Z,6.53
2023-04-30T21:27:52.501Z,7.07
2023-04-30T21:33:01.104Z,7.38
2023-04-30T21:38:06.768Z,7.78
2023-04-30T21:43:12.033Z,6.82
2023-04-30T21:48:58.176Z,7.45
2023-04-30T21:54:00.771Z,6.72
2023-04-30T21:59:03.396Z,5.68
2023-04-30T22:04:06.459Z,7.15
2023-04-30T22:09:11.544Z,6.63
2023-04-30T22:14:14.175Z,5.78
2023-04-30T22:19:17.022Z,7.15
2023-04-30T22:24:19.735Z,7.30
2023-04-30T22:29:21.829Z,6.88
2023-04-30T22:34:24.409Z,6.55
2023-04-30T22:39:26.938Z,6.68
2023-04-30T22:44:30.044Z,5.70
2023-04-30T22:49:33.146Z,6.63
2023-04-30T22:54:36.233Z,6.80
2023-04-30T22:59:39.773Z,6.43
2023-04-30T23:04:42.354Z,6.53
2023-04-30T23:09:45.602Z,7.80
2023-04-30T23:14:48.365Z,6.00
2023-04-30T23:19:50.764Z,6.15
2023-04-30T23:24:53.473Z,6.50
2023-04-30T23:29:56.432Z,5.90
2023-04-30T23:34:59.386Z,5.93
2023-04-30T23:40:01.797Z,6.63
2023-04-30T23:45:04.732Z,8.68
2023-04-30T23:50:08.126Z,7.88
2023-04-30T23:55:11.404Z,6.80
